createdAt,value
2024-03-03T00:00:52.393Z,11.57
2024-03-03T00:03:21.038Z,11.59
2024-03-03T00:05:49.598Z,11.59
2024-03-03T00:08:18.179Z,11.55
2024-03-03T00:10:46.817Z,11.51
2024-03-03T00:13:15.663Z,11.53
2024-03-03T00:15:44.328Z,11.63
2024-03-03T00:18:12.908Z,11.65
2024-03-03T00:20:41.451Z,11.66
2024-03-03T00:23:09.981Z,11.62
2024-03-03T00:25:38.668Z,11.59
2024-03-03T00:28:07.512Z,11.51
2024-03-03T00:30:36.098Z,11.47
2024-03-03T00:33:04.809Z,11.49
2024-03-03T00:35:33.209Z,11.53
2024-03-03T00:38:02.283Z,11.57
2024-03-03T00:40:32.049Z,11.62
2024-03-03T00:43:00.887Z,11.62
2024-03-03T00:45:29.369Z,11.63
2024-03-03T00:47:57.962Z,11.69
2024-03-03T00:50:26.656Z,11.68
2024-03-03T00:52:58.365Z,11.61
2024-03-03T00:55:28.062Z,11.62
2024-03-03T00:57:56.746Z,11.60
2024-03-03T01:00:25.464Z,11.66
2024-03-03T01:02:53.988Z,11.68
2024-03-03T01:05:22.456Z,11.66
2024-03-03T01:07:50.978Z,11.65
2024-03-03T01:10:19.560Z,11.67
2024-03-03T01:12:48.222Z,11.69
2024-03-03T01:15:16.867Z,11.71
2024-03-03T01:17:45.846Z,11.74
2024-03-03T01:20:15.421Z,11.77
2024-03-03T01:22:44.062Z,11.74
2024-03-03T01:25:12.639Z,11.69
2024-03-03T01:27:41.126Z,11.65
2024-03-03T01:30:09.820Z,11.59
2024-03-03T01:32:38.378Z,11.58
2024-03-03T01:35:07.348Z,11.57
2024-03-03T01:37:35.978Z,11.56
2024-03-03T01:40:06.524Z,11.55
2024-03-03T01:42:36.228Z,11.51
2024-03-03T01:45:05.237Z,11.43
2024-03-03T01:47:34.251Z,11.40
2024-03-03T01:50:03.307Z,11.37
2024-03-03T01:52:31.991Z,11.32
2024-03-03T01:55:00.749Z,11.29
2024-03-03T01:57:29.820Z,11.28
2024-03-03T01:59:58.458Z,11.23
2024-03-03T02:02:29.519Z,11.19
2024-03-03T02:05:00.194Z,11.14
2024-03-03T02:07:30.716Z,11.11
2024-03-03T02:09:59.855Z,11.06
2024-03-03T02:12:30.764Z,11.01
2024-03-03T02:14:59.287Z,11.02
2024-03-03T02:17:28.327Z,11.03
2024-03-03T02:19:56.801Z,11.05
2024-03-03T02:22:25.373Z,11.07
2024-03-03T02:24:53.870Z,11.07
2024-03-03T02:27:22.462Z,11.10
2024-03-03T02:29:50.970Z,11.06
2024-03-03T02:32:19.523Z,11.08
2024-03-03T02:34:47.992Z,11.09
2024-03-03T02:37:16.564Z,11.09
2024-03-03T02:39:45.105Z,11.08
2024-03-03T02:42:13.722Z,11.02
2024-03-03T02:44:42.259Z,10.98
2024-03-03T02:47:10.734Z,10.96
2024-03-03T02:49:39.209Z,10.98
2024-03-03T02:52:08.510Z,11.02
2024-03-03T02:54:37.090Z,11.05
2024-03-03T02:57:05.829Z,11.04
2024-03-03T02:59:35.687Z,11.03
2024-03-03T03:02:04.306Z,10.99
2024-03-03T03:04:32.957Z,10.96
2024-03-03T03:07:01.611Z,10.94
2024-03-03T03:09:30.237Z,10.91
2024-03-03T03:11:59.127Z,10.88
2024-03-03T03:14:27.637Z,10.86
2024-03-03T03:16:56.108Z,10.88
2024-03-03T03:19:25.537Z,10.84
2024-03-03T03:21:54.068Z,10.80
2024-03-03T03:24:22.695Z,10.80
2024-03-03T03:26:51.334Z,10.81
2024-03-03T03:29:19.970Z,10.81
2024-03-03T03:31:48.506Z,10.79
2024-03-03T03:34:17.065Z,10.76
2024-03-03T03:36:45.642Z,10.74
2024-03-03T03:39:17.618Z,10.69
2024-03-03T03:41:50.341Z,10.69
2024-03-03T03:44:22.977Z,10.66
2024-03-03T03:46:51.799Z,10.62
2024-03-03T03:49:20.457Z,10.58
2024-03-03T03:51:49.642Z,10.55
2024-03-03T03:54:19.134Z,10.52
2024-03-03T03:56:47.738Z,10.48
2024-03-03T03:59:16.325Z,10.42
2024-03-03T04:01:44.879Z,10.38
2024-03-03T04:04:13.696Z,10.37
2024-03-03T04:06:42.256Z,10.36
2024-03-03T04:09:10.939Z,10.36
2024-03-03T04:11:40.085Z,10.37
2024-03-03T04:14:09.317Z,10.38
2024-03-03T04:16:37.750Z,10.40
2024-03-03T04:19:06.229Z,10.42
2024-03-03T04:21:34.753Z,10.42
2024-03-03T04:24:03.255Z,10.39
2024-03-03T04:26:31.782Z,10.40
2024-03-03T04:29:00.255Z,10.40
2024-03-03T04:31:28.716Z,10.40
2024-03-03T04:33:57.192Z,10.41
2024-03-03T04:36:27.644Z,10.44
2024-03-03T04:38:56.163Z,10.45
2024-03-03T04:41:24.677Z,10.45
2024-03-03T04:43:53.815Z,10.45
2024-03-03T04:46:22.429Z,10.41
2024-03-03T04:48:51.006Z,10.41
2024-03-03T04:51:20.196Z,10.38
2024-03-03T04:53:48.635Z,10.35
2024-03-03T04:56:19.236Z,10.33
2024-03-03T04:58:48.697Z,10.31
2024-03-03T05:01:17.332Z,10.28
2024-03-03T05:03:46.069Z,10.25
2024-03-03T05:06:14.619Z,10.29
2024-03-03T05:08:43.217Z,10.32
2024-03-03T05:11:11.965Z,10.35
2024-03-03T05:13:40.472Z,10.39
2024-03-03T05:16:12.084Z,10.43
2024-03-03T05:18:40.653Z,10.46
2024-03-03T05:21:09.166Z,10.46
2024-03-03T05:23:37.655Z,10.46
2024-03-03T05:26:06.258Z,10.48
2024-03-03T05:28:34.718Z,10.48
2024-03-03T05:31:07.959Z,10.48
2024-03-03T05:33:36.984Z,10.48
2024-03-03T05:36:06.618Z,10.48
2024-03-03T05:38:35.106Z,10.46
2024-03-03T05:41:03.679Z,10.46
2024-03-03T05:43:32.133Z,10.45
2024-03-03T05:46:00.681Z,10.43
2024-03-03T05:48:29.197Z,10.42
2024-03-03T05:50:57.864Z,10.42
2024-03-03T05:53:26.353Z,10.43
2024-03-03T05:55:54.871Z,10.41
2024-03-03T05:58:23.379Z,10.37
2024-03-03T06:00:52.028Z,10.38
2024-03-03T06:03:20.756Z,10.40
2024-03-03T06:05:49.365Z,10.42
2024-03-03T06:08:18.642Z,10.43
2024-03-03T06:10:47.297Z,10.43
2024-03-03T06:13:15.973Z,10.46
2024-03-03T06:15:44.598Z,10.45
2024-03-03T06:18:13.371Z,10.43
2024-03-03T06:20:41.876Z,10.40
2024-03-03T06:23:10.394Z,10.36
2024-03-03T06:25:41.999Z,10.34
2024-03-03T06:28:10.682Z,10.32
2024-03-03T06:30:39.369Z,10.32
2024-03-03T06:33:07.987Z,10.30
2024-03-03T06:35:36.460Z,10.28
2024-03-03T06:38:05.460Z,10.28
2024-03-03T06:40:34.726Z,10.27
2024-03-03T06:43:03.252Z,10.29
2024-03-03T06:45:31.774Z,10.32
2024-03-03T06:48:00.325Z,10.35
2024-03-03T06:50:28.996Z,10.38
2024-03-03T06:52:57.412Z,10.44
2024-03-03T06:55:29.365Z,10.48
2024-03-03T06:57:59.121Z,10.49
2024-03-03T07:00:27.697Z,10.44
2024-03-03T07:03:04.902Z,10.39
2024-03-03T07:05:33.502Z,10.26
2024-03-03T07:08:04.669Z,10.18
2024-03-03T07:10:34.103Z,10.04
2024-03-03T07:13:03.289Z,9.94
2024-03-03T07:15:31.977Z,9.89
2024-03-03T07:18:01.988Z,9.84
2024-03-03T07:20:31.256Z,9.84
2024-03-03T07:22:59.689Z,9.82
2024-03-03T07:25:28.468Z,9.81
2024-03-03T07:27:57.297Z,9.78
2024-03-03T07:30:25.795Z,9.83
2024-03-03T07:32:54.221Z,9.82
2024-03-03T07:35:22.805Z,9.78
2024-03-03T07:37:51.301Z,9.77
2024-03-03T07:40:20.121Z,9.77
2024-03-03T07:42:48.714Z,9.78
2024-03-03T07:45:17.325Z,9.78
2024-03-03T07:47:46.345Z,9.76
2024-03-03T07:50:14.941Z,9.74
2024-03-03T07:52:43.375Z,9.72
2024-03-03T07:55:11.919Z,9.70
2024-03-03T07:57:40.459Z,9.65
2024-03-03T08:00:10.617Z,9.58
2024-03-03T08:02:39.120Z,9.55
2024-03-03T08:05:07.735Z,9.49
2024-03-03T08:07:36.302Z,9.44
2024-03-03T08:10:06.201Z,9.46
2024-03-03T08:12:34.777Z,9.45
2024-03-03T08:15:03.301Z,9.46
2024-03-03T08:17:32.201Z,9.48
2024-03-03T08:20:00.745Z,9.49
2024-03-03T08:22:29.293Z,9.43
2024-03-03T08:24:57.884Z,9.43
2024-03-03T08:27:26.344Z,9.45
2024-03-03T08:29:54.879Z,9.39
2024-03-03T08:32:25.376Z,9.32
2024-03-03T08:34:53.896Z,9.26
2024-03-03T08:37:22.510Z,9.24
2024-03-03T08:39:51.051Z,9.27
2024-03-03T08:42:19.922Z,9.28
2024-03-03T08:44:48.392Z,9.29
2024-03-03T08:47:16.878Z,9.34
2024-03-03T08:49:45.456Z,9.36
2024-03-03T08:52:14.089Z,9.36
2024-03-03T08:54:42.995Z,9.39
2024-03-03T08:57:11.496Z,9.39
2024-03-03T08:59:40.020Z,9.36
2024-03-03T09:02:08.641Z,9.30
2024-03-03T09:04:40.400Z,9.26
2024-03-03T09:07:10.047Z,9.26
2024-03-03T09:09:41.633Z,9.26
2024-03-03T09:12:12.736Z,9.26
2024-03-03T09:14:41.239Z,9.23
2024-03-03T09:17:09.916Z,9.18
2024-03-03T09:19:38.756Z,9.14
2024-03-03T09:22:07.386Z,9.12
2024-03-03T09:24:35.850Z,9.08
2024-03-03T09:27:04.418Z,8.96
2024-03-03T09:29:32.966Z,8.92
2024-03-03T09:32:01.538Z,8.94
2024-03-03T09:34:30.217Z,8.93
2024-03-03T09:36:58.801Z,8.93
2024-03-03T09:39:27.798Z,8.91
2024-03-03T09:41:59.995Z,8.91
2024-03-03T09:44:32.382Z,8.90
2024-03-03T09:47:03.763Z,8.88
2024-03-03T09:49:34.838Z,8.89
2024-03-03T09:52:06.211Z,8.89
2024-03-03T09:54:35.435Z,8.89
2024-03-03T09:57:07.419Z,8.88
2024-03-03T09:59:35.995Z,8.91
2024-03-03T10:02:05.327Z,8.97
2024-03-03T10:04:34.860Z,9.02
2024-03-03T10:07:09.629Z,9.07
2024-03-03T10:09:40.705Z,9.07
2024-03-03T10:12:14.166Z,9.09
2024-03-03T10:14:43.480Z,9.06
2024-03-03T10:17:13.395Z,9.08
2024-03-03T10:19:42.055Z,9.07
2024-03-03T10:22:17.191Z,9.06
2024-03-03T10:24:45.917Z,9.02
2024-03-03T10:27:19.049Z,9.01
2024-03-03T10:29:48.595Z,9.02
2024-03-03T10:32:17.626Z,8.95
2024-03-03T10:35:02.787Z,8.96
2024-03-03T10:37:32.536Z,9.01
2024-03-03T10:40:04.630Z,9.03
2024-03-03T10:42:33.555Z,9.06
2024-03-03T10:45:02.277Z,9.05
2024-03-03T10:47:30.834Z,8.99
2024-03-03T10:49:59.938Z,8.94
2024-03-03T10:52:28.527Z,8.90
2024-03-03T10:54:57.422Z,8.83
2024-03-03T10:57:27.658Z,8.81
2024-03-03T10:59:59.117Z,8.77
2024-03-03T11:02:32.318Z,8.73
2024-03-03T11:05:03.439Z,8.63
2024-03-03T11:07:32.880Z,8.61
2024-03-03T11:10:04.112Z,8.58
2024-03-03T11:12:35.236Z,8.56
2024-03-03T11:15:07.921Z,8.53
2024-03-03T11:17:43.692Z,8.53
2024-03-03T11:20:19.205Z,8.51
2024-03-03T11:23:04.254Z,8.51
2024-03-03T11:25:41.058Z,8.49
2024-03-03T11:28:20.362Z,8.46
2024-03-03T11:30:49.114Z,8.48
2024-03-03T11:33:18.258Z,8.52
2024-03-03T11:35:48.457Z,8.57
2024-03-03T11:38:17.201Z,8.59
2024-03-03T11:40:46.051Z,8.58
2024-03-03T11:43:14.589Z,8.60
2024-03-03T11:45:48.460Z,8.63
2024-03-03T11:48:17.357Z,8.67
2024-03-03T11:50:46.015Z,8.67
2024-03-03T11:53:15.656Z,8.64
2024-03-03T11:55:52.676Z,8.65
2024-03-03T11:58:25.201Z,8.65
2024-03-03T12:01:12.246Z,8.63
2024-03-03T12:03:41.259Z,8.64
2024-03-03T12:06:12.660Z,8.67
2024-03-03T12:08:42.397Z,8.71
2024-03-03T12:11:17.240Z,8.70
2024-03-03T12:13:45.787Z,8.72
2024-03-03T12:16:15.096Z,8.78
2024-03-03T12:18:43.748Z,8.77
2024-03-03T12:21:12.835Z,8.74
2024-03-03T12:23:41.416Z,8.70
2024-03-03T12:26:10.561Z,8.69
2024-03-03T12:28:40.354Z,8.71
2024-03-03T12:31:09.024Z,8.74
2024-03-03T12:33:42.772Z,8.78
2024-03-03T12:36:12.854Z,8.80
2024-03-03T12:38:41.500Z,8.78
2024-03-03T12:41:10.118Z,8.72
2024-03-03T12:43:38.623Z,8.69
2024-03-03T12:46:09.103Z,8.66
2024-03-03T12:48:37.693Z,8.64
2024-03-03T12:51:06.747Z,8.64
2024-03-03T12:53:40.882Z,8.61
2024-03-03T12:56:21.080Z,8.56
2024-03-03T12:58:50.101Z,8.53
2024-03-03T13:01:19.896Z,8.49
2024-03-03T13:03:55.892Z,8.46
2024-03-03T13:06:25.615Z,8.44
2024-03-03T13:08:55.482Z,8.44
2024-03-03T13:11:25.626Z,8.40
2024-03-03T13:13:54.240Z,8.37
2024-03-03T13:16:24.151Z,8.35
2024-03-03T13:19:01.507Z,8.34
2024-03-03T13:21:31.156Z,8.32
2024-03-03T13:24:15.176Z,8.34
2024-03-03T13:26:44.319Z,8.32
2024-03-03T13:29:13.690Z,8.33
2024-03-03T13:31:42.143Z,8.34
2024-03-03T13:34:12.129Z,8.31
2024-03-03T13:36:40.676Z,8.29
2024-03-03T13:39:11.930Z,8.31
2024-03-03T13:41:41.209Z,8.35
2024-03-03T13:44:09.726Z,8.40
2024-03-03T13:46:38.231Z,8.44
2024-03-03T13:49:06.985Z,8.48
2024-03-03T13:51:35.734Z,8.50
2024-03-03T13:54:04.144Z,8.52
2024-03-03T13:56:33.052Z,8.51
2024-03-03T13:59:01.494Z,8.53
2024-03-03T14:01:30.128Z,8.55
2024-03-03T14:03:58.677Z,8.52
2024-03-03T14:06:27.997Z,8.52
2024-03-03T14:08:56.946Z,8.50
2024-03-03T14:11:26.340Z,8.48
2024-03-03T14:13:55.118Z,8.51
2024-03-03T14:16:23.627Z,8.52
2024-03-03T14:18:53.839Z,8.54
2024-03-03T14:21:23.396Z,8.55
2024-03-03T14:23:53.060Z,8.56
2024-03-03T14:26:22.923Z,8.58
2024-03-03T14:28:55.194Z,8.57
2024-03-03T14:31:24.149Z,8.59
2024-03-03T14:33:52.891Z,8.56
2024-03-03T14:36:25.276Z,8.53
2024-03-03T14:38:53.836Z,8.52
2024-03-03T14:41:22.775Z,8.51
2024-03-03T14:43:51.482Z,8.51
2024-03-03T14:46:20.147Z,8.49
2024-03-03T14:48:48.717Z,8.46
2024-03-03T14:51:17.176Z,8.48
2024-03-03T14:53:46.338Z,8.50
2024-03-03T14:56:14.956Z,8.46
2024-03-03T14:58:44.095Z,8.46
2024-03-03T15:01:12.709Z,8.45
2024-03-03T15:03:41.457Z,8.46
2024-03-03T15:06:10.154Z,8.47
2024-03-03T15:08:39.204Z,8.52
2024-03-03T15:11:07.744Z,8.56
2024-03-03T15:13:36.615Z,8.62
2024-03-03T15:16:05.523Z,8.68
2024-03-03T15:18:34.035Z,8.73
2024-03-03T15:21:02.521Z,8.79
2024-03-03T15:23:31.001Z,8.86
2024-03-03T15:26:00.048Z,8.93
2024-03-03T15:28:31.577Z,8.97
2024-03-03T15:31:00.961Z,9.00
2024-03-03T15:33:34.400Z,9.03
2024-03-03T15:36:04.353Z,9.09
2024-03-03T15:38:32.940Z,9.10
2024-03-03T15:41:01.414Z,9.13
2024-03-03T15:43:30.403Z,9.15
2024-03-03T15:45:59.569Z,9.20
2024-03-03T15:48:30.809Z,9.29
2024-03-03T15:50:59.715Z,9.38
2024-03-03T15:53:28.232Z,9.46
2024-03-03T15:55:59.394Z,9.52
2024-03-03T15:58:29.503Z,9.64
2024-03-03T16:00:58.034Z,9.71
2024-03-03T16:03:26.580Z,9.77
2024-03-03T16:05:55.316Z,9.78
2024-03-03T16:08:24.665Z,9.79
2024-03-03T16:10:55.242Z,9.78
2024-03-03T16:13:25.087Z,9.77
2024-03-03T16:15:53.787Z,9.78
2024-03-03T16:18:22.705Z,9.80
2024-03-03T16:20:51.202Z,9.82
2024-03-03T16:23:20.071Z,9.91
2024-03-03T16:25:48.538Z,9.95
2024-03-03T16:28:17.341Z,10.00
2024-03-03T16:30:46.104Z,10.02
2024-03-03T16:33:14.930Z,10.04
2024-03-03T16:35:47.824Z,10.09
2024-03-03T16:38:16.403Z,10.11
2024-03-03T16:40:45.161Z,10.17
2024-03-03T16:43:13.800Z,10.24
2024-03-03T16:45:46.982Z,10.30
2024-03-03T16:48:16.505Z,10.35
2024-03-03T16:50:45.244Z,10.43
2024-03-03T16:53:13.678Z,10.43
2024-03-03T16:55:42.222Z,10.45
2024-03-03T16:58:11.223Z,10.49
2024-03-03T17:00:39.754Z,10.57
2024-03-03T17:03:08.279Z,10.64
2024-03-03T17:05:36.716Z,10.69
2024-03-03T17:08:05.359Z,10.76
2024-03-03T17:10:34.036Z,10.80
2024-03-03T17:13:02.683Z,10.87
2024-03-03T17:15:31.298Z,10.97
2024-03-03T17:17:59.840Z,11.07
2024-03-03T17:20:28.400Z,11.12
2024-03-03T17:22:59.031Z,11.24
2024-03-03T17:25:28.096Z,11.33
2024-03-03T17:27:56.810Z,11.33
2024-03-03T17:30:25.892Z,11.28
2024-03-03T17:32:54.461Z,11.25
2024-03-03T17:35:26.316Z,11.17
2024-03-03T17:37:54.823Z,11.12
2024-03-03T17:40:23.392Z,11.10
2024-03-03T17:42:51.930Z,11.09
2024-03-03T17:45:20.437Z,11.13
2024-03-03T17:47:48.980Z,11.17
2024-03-03T17:50:17.958Z,11.19
2024-03-03T17:52:47.502Z,11.21
2024-03-03T17:55:16.525Z,11.25
2024-03-03T17:57:45.181Z,11.34
2024-03-03T18:00:15.088Z,11.46
2024-03-03T18:02:43.837Z,11.59
2024-03-03T18:05:12.637Z,11.65
2024-03-03T18:07:41.943Z,11.72
2024-03-03T18:10:12.511Z,11.74
2024-03-03T18:12:41.231Z,11.76
2024-03-03T18:15:11.928Z,11.79
2024-03-03T18:17:41.313Z,11.88
2024-03-03T18:20:11.013Z,11.93
2024-03-03T18:22:40.087Z,11.92
2024-03-03T18:25:08.859Z,11.97
2024-03-03T18:27:37.338Z,12.09
2024-03-03T18:30:08.327Z,12.14
2024-03-03T18:32:36.950Z,12.11
2024-03-03T18:35:08.432Z,12.02
2024-03-03T18:37:39.833Z,11.92
2024-03-03T18:40:10.136Z,11.82
2024-03-03T18:42:38.607Z,11.76
2024-03-03T18:45:10.069Z,11.80
2024-03-03T18:47:39.498Z,11.87
2024-03-03T18:50:08.521Z,11.92
2024-03-03T18:52:37.666Z,11.97
2024-03-03T18:55:07.102Z,12.13
2024-03-03T18:57:35.987Z,12.28
2024-03-03T19:00:06.693Z,12.41
2024-03-03T19:02:35.401Z,12.54
2024-03-03T19:05:03.988Z,12.60
2024-03-03T19:07:33.637Z,12.73
2024-03-03T19:10:02.612Z,12.83
2024-03-03T19:12:31.437Z,12.85
2024-03-03T19:14:59.866Z,12.87
2024-03-03T19:17:28.723Z,12.82
2024-03-03T19:19:57.317Z,12.84
2024-03-03T19:22:26.003Z,12.81
2024-03-03T19:24:54.568Z,12.78
2024-03-03T19:27:23.356Z,12.92
2024-03-03T19:29:51.812Z,13.07
2024-03-03T19:32:20.378Z,13.20
2024-03-03T19:34:48.922Z,13.23
2024-03-03T19:37:17.421Z,13.23
2024-03-03T19:39:46.343Z,13.32
2024-03-03T19:42:20.366Z,13.53
2024-03-03T19:44:48.843Z,13.58
2024-03-03T19:47:19.480Z,13.60
2024-03-03T19:49:48.002Z,13.53
2024-03-03T19:52:17.087Z,13.61
2024-03-03T19:54:46.319Z,13.62
2024-03-03T19:57:15.817Z,13.63
2024-03-03T19:59:45.995Z,13.62
2024-03-03T20:02:15.767Z,13.55
2024-03-03T20:04:44.389Z,13.53
2024-03-03T20:07:13.262Z,13.62
2024-03-03T20:09:43.658Z,13.67
2024-03-03T20:12:12.145Z,13.73
2024-03-03T20:14:43.517Z,13.83
2024-03-03T20:17:15.915Z,13.92
2024-03-03T20:19:47.657Z,13.93
2024-03-03T20:22:16.278Z,13.96
2024-03-03T20:24:44.816Z,13.94
2024-03-03T20:27:13.301Z,13.98
2024-03-03T20:29:41.778Z,14.16
2024-03-03T20:32:10.336Z,14.27
2024-03-03T20:34:38.908Z,14.38
2024-03-03T20:37:07.420Z,14.47
2024-03-03T20:39:35.836Z,14.46
2024-03-03T20:42:04.314Z,14.44
2024-03-03T20:44:32.814Z,14.44
2024-03-03T20:47:01.263Z,14.39
2024-03-03T20:49:29.794Z,14.37
2024-03-03T20:51:58.382Z,14.32
2024-03-03T20:54:26.859Z,14.26
2024-03-03T20:56:56.626Z,14.32
2024-03-03T20:59:25.242Z,14.40
2024-03-03T21:01:53.812Z,14.46
2024-03-03T21:04:22.475Z,14.50
2024-03-03T21:06:51.018Z,14.50
2024-03-03T21:09:19.774Z,14.50
2024-03-03T21:11:48.274Z,14.46
2024-03-03T21:14:16.777Z,14.44
2024-03-03T21:16:45.195Z,14.50
2024-03-03T21:19:17.914Z,14.61
2024-03-03T21:21:46.485Z,14.65
2024-03-03T21:24:18.877Z,14.60
2024-03-03T21:26:48.674Z,14.59
2024-03-03T21:29:17.216Z,14.58
2024-03-03T21:31:46.095Z,14.57
2024-03-03T21:34:15.053Z,14.63
2024-03-03T21:36:43.596Z,14.59
2024-03-03T21:39:12.444Z,14.65
2024-03-03T21:41:42.136Z,14.71
2024-03-03T21:44:10.595Z,15.00
2024-03-03T21:46:39.145Z,15.21
2024-03-03T21:49:07.719Z,15.35
2024-03-03T21:51:36.156Z,15.48
2024-03-03T21:54:05.995Z,15.41
2024-03-03T21:56:34.654Z,15.38
2024-03-03T21:59:04.105Z,15.29
2024-03-03T22:01:32.710Z,15.23
2024-03-03T22:04:01.365Z,15.14
2024-03-03T22:06:29.794Z,15.06
2024-03-03T22:08:58.340Z,14.94
2024-03-03T22:11:26.962Z,14.79
2024-03-03T22:13:55.601Z,14.70
2024-03-03T22:16:24.369Z,14.65
2024-03-03T22:18:52.976Z,14.62
2024-03-03T22:21:22.447Z,14.69
2024-03-03T22:23:51.723Z,14.68
2024-03-03T22:26:20.474Z,14.65
2024-03-03T22:28:48.948Z,14.63
2024-03-03T22:31:18.559Z,14.60
2024-03-03T22:33:47.815Z,14.54
2024-03-03T22:36:16.297Z,14.52
2024-03-03T22:38:44.734Z,14.45
2024-03-03T22:41:15.057Z,14.36
2024-03-03T22:43:43.556Z,14.29
2024-03-03T22:46:13.628Z,14.29
2024-03-03T22:48:43.347Z,14.41
2024-03-03T22:51:13.121Z,14.59
2024-03-03T22:53:42.084Z,14.57
2024-03-03T22:56:10.639Z,14.57
2024-03-03T22:58:39.153Z,14.54
2024-03-03T23:01:08.913Z,14.48
2024-03-03T23:03:38.892Z,14.69
2024-03-03T23:06:10.779Z,14.90
2024-03-03T23:08:41.051Z,14.94
2024-03-03T23:11:09.625Z,14.93
2024-03-03T23:13:38.123Z,14.96
2024-03-03T23:16:08.146Z,14.86
2024-03-03T23:18:36.657Z,14.74
2024-03-03T23:21:05.232Z,14.68
2024-03-03T23:23:33.915Z,14.62
2024-03-03T23:26:05.780Z,14.63
2024-03-03T23:28:34.263Z,14.67
2024-03-03T23:31:03.195Z,14.63
2024-03-03T23:33:32.175Z,14.49
2024-03-03T23:36:01.257Z,14.43
2024-03-03T23:38:29.708Z,14.33
2024-03-03T23:40:58.184Z,14.30
2024-03-03T23:43:27.103Z,14.28
2024-03-03T23:45:55.532Z,14.23
2024-03-03T23:48:25.285Z,14.24
2024-03-03T23:50:54.624Z,14.15
2024-03-03T23:53:23.217Z,14.07
2024-03-03T23:55:53.841Z,14.15
2024-03-03T23:58:22.452Z,14.21
